createdAt,value
2018-09-13T00:01:01.436Z,100557.05
2018-09-13T00:03:30.737Z,100549.37
2018-09-13T00:06:00.090Z,100542.37
2018-09-13T00:08:29.232Z,100551.05
2018-09-13T00:10:58.507Z,100544.86
2018-09-13T00:13:27.734Z,100549.10
2018-09-13T00:15:57.091Z,100543.36
2018-09-13T00:18:26.332Z,100543.38
2018-09-13T00:20:55.605Z,100543.73
2018-09-13T00:23:24.868Z,100542.78
2018-09-13T00:25:54.191Z,100542.61
2018-09-13T00:28:23.486Z,100539.59
2018-09-13T00:30:52.800Z,100542.99
2018-09-13T00:33:22.035Z,100535.66
2018-09-13T00:35:51.283Z,100538.43
2018-09-13T00:38:20.557Z,100532.45
2018-09-13T00:40:49.866Z,100540.31
2018-09-13T00:43:19.122Z,100533.53
2018-09-13T00:45:48.427Z,100533.59
2018-09-13T00:48:17.765Z,100527.75
2018-09-13T00:50:46.997Z,100532.84
2018-09-13T00:53:16.762Z,100533.19
2018-09-13T00:55:45.997Z,100535.97
2018-09-13T00:58:15.607Z,100540.70
2018-09-13T01:00:45.000Z,100530.91
2018-09-13T01:03:14.819Z,100533.26
2018-09-13T01:05:44.599Z,100520.17
2018-09-13T01:08:14.403Z,100526.03
2018-09-13T01:10:43.600Z,100532.37
2018-09-13T01:13:12.870Z,100527.95
2018-09-13T01:15:42.199Z,100526.66
2018-09-13T01:18:11.680Z,100535.31
2018-09-13T01:20:41.062Z,100525.01
2018-09-13T01:23:10.354Z,100530.56
2018-09-13T01:25:39.591Z,100522.46
2018-09-13T01:28:08.849Z,100521.30
2018-09-13T01:30:38.092Z,100525.14
2018-09-13T01:33:07.359Z,100531.55
2018-09-13T01:35:36.606Z,100536.73
2018-09-13T01:38:05.870Z,100540.38
2018-09-13T01:40:35.126Z,100549.45
2018-09-13T01:43:04.405Z,100543.52
2018-09-13T01:45:33.749Z,100531.32
2018-09-13T01:48:03.244Z,100520.71
2018-09-13T01:50:32.520Z,100519.05
2018-09-13T01:53:01.771Z,100518.76
2018-09-13T01:55:31.051Z,100512.45
2018-09-13T01:58:00.331Z,100515.66
2018-09-13T02:00:29.598Z,100516.95
2018-09-13T02:02:58.876Z,100516.12
2018-09-13T02:05:28.135Z,100514.23
2018-09-13T02:07:57.367Z,100511.45
2018-09-13T02:10:26.648Z,100514.33
2018-09-13T02:12:55.903Z,100514.30
2018-09-13T02:15:25.319Z,100510.63
2018-09-13T02:17:54.570Z,100517.87
2018-09-13T02:20:23.872Z,100519.52
2018-09-13T02:22:54.070Z,100516.88
2018-09-13T02:25:23.331Z,100515.81
2018-09-13T02:27:52.568Z,100516.28
2018-09-13T02:30:21.834Z,100522.76
2018-09-13T02:32:51.151Z,100523.34
2018-09-13T02:35:20.527Z,100517.63
2018-09-13T02:37:49.845Z,100514.69
2018-09-13T02:40:19.134Z,100512.73
2018-09-13T02:42:48.402Z,100503.84
2018-09-13T02:45:19.000Z,100500.02
2018-09-13T02:47:48.251Z,100506.86
2018-09-13T02:50:19.015Z,100509.86
2018-09-13T02:52:48.282Z,100513.40
2018-09-13T02:55:17.791Z,100520.94
2018-09-13T02:57:47.095Z,100517.79
2018-09-13T03:00:17.301Z,100517.56
2018-09-13T03:02:46.584Z,100509.50
2018-09-13T03:05:16.862Z,100512.27
2018-09-13T03:07:46.040Z,100513.86
2018-09-13T03:10:15.961Z,100501.53
2018-09-13T03:12:45.117Z,100495.06
2018-09-13T03:15:15.987Z,100492.84
2018-09-13T03:17:45.251Z,100494.36
2018-09-13T03:20:16.373Z,100491.83
2018-09-13T03:22:45.589Z,100482.11
2018-09-13T03:25:16.983Z,100482.67
2018-09-13T03:27:46.208Z,100476.10
2018-09-13T03:30:17.361Z,100476.56
2018-09-13T03:32:46.558Z,100469.30
2018-09-13T03:35:16.716Z,100475.47
2018-09-13T03:37:45.924Z,100476.66
2018-09-13T03:40:15.996Z,100475.06
2018-09-13T03:42:45.218Z,100483.92
2018-09-13T03:45:14.902Z,100480.63
2018-09-13T03:47:44.119Z,100483.10
2018-09-13T03:50:15.062Z,100484.22
2018-09-13T03:52:49.891Z,100482.23
2018-09-13T03:55:19.096Z,100477.77
2018-09-13T03:57:48.354Z,100474.39
2018-09-13T04:00:18.147Z,100476.35
2018-09-13T04:02:47.351Z,100477.77
2018-09-13T04:05:17.279Z,100483.95
2018-09-13T04:07:46.467Z,100482.80
2018-09-13T04:10:17.237Z,100487.41
2018-09-13T04:12:47.288Z,100482.20
2018-09-13T04:15:17.199Z,100481.92
2018-09-13T04:17:46.377Z,100487.33
2018-09-13T04:20:16.805Z,100491.69
2018-09-13T04:22:46.018Z,100484.25
2018-09-13T04:25:17.124Z,100485.81
2018-09-13T04:27:46.306Z,100482.16
2018-09-13T04:30:17.201Z,100480.33
2018-09-13T04:32:46.417Z,100475.67
2018-09-13T04:35:15.630Z,100475.58
2018-09-13T04:37:44.783Z,100471.34
2018-09-13T04:40:14.980Z,100468.28
2018-09-13T04:42:44.204Z,100474.84
2018-09-13T04:45:14.602Z,100468.66
2018-09-13T04:47:43.774Z,100470.53
2018-09-13T04:50:13.312Z,100477.91
2018-09-13T04:52:42.502Z,100484.25
2018-09-13T04:55:13.414Z,100477.69
2018-09-13T04:57:42.596Z,100484.59
2018-09-13T05:00:12.364Z,100482.89
2018-09-13T05:02:41.624Z,100491.84
2018-09-13T05:05:12.154Z,100489.71
2018-09-13T05:07:41.374Z,100495.28
2018-09-13T05:10:11.416Z,100494.16
2018-09-13T05:12:40.621Z,100493.02
2018-09-13T05:15:11.028Z,100494.97
2018-09-13T05:17:40.248Z,100486.42
2018-09-13T05:20:10.575Z,100491.20
2018-09-13T05:22:39.732Z,100489.95
2018-09-13T05:25:10.009Z,100487.69
2018-09-13T05:27:39.199Z,100490.05
2018-09-13T05:30:09.491Z,100490.59
2018-09-13T05:32:38.707Z,100486.30
2018-09-13T05:35:07.917Z,100490.26
2018-09-13T05:37:37.217Z,100494.11
2018-09-13T05:40:06.671Z,100493.05
2018-09-13T05:42:35.855Z,100492.77
2018-09-13T05:45:05.155Z,100491.33
2018-09-13T05:47:34.305Z,100486.06
2018-09-13T05:50:03.515Z,100483.63
2018-09-13T05:52:32.708Z,100482.48
2018-09-13T05:55:01.894Z,100487.53
2018-09-13T05:57:31.072Z,100490.10
2018-09-13T06:00:00.264Z,100496.95
2018-09-13T06:02:29.491Z,100488.81
2018-09-13T06:04:58.725Z,100485.88
2018-09-13T06:07:27.940Z,100489.12
2018-09-13T06:09:57.351Z,100494.01
2018-09-13T06:12:26.527Z,100491.67
2018-09-13T06:14:55.680Z,100489.71
2018-09-13T06:17:24.856Z,100494.01
2018-09-13T06:19:54.259Z,100496.02
2018-09-13T06:22:23.342Z,100500.02
2018-09-13T06:24:52.583Z,100500.92
2018-09-13T06:27:21.823Z,100496.55
2018-09-13T06:29:51.051Z,100501.97
2018-09-13T06:32:20.195Z,100502.09
2018-09-13T06:34:49.414Z,100503.14
2018-09-13T06:37:18.620Z,100504.78
2018-09-13T06:39:47.844Z,100501.61
2018-09-13T06:42:17.285Z,100511.30
2018-09-13T06:44:46.384Z,100516.17
2018-09-13T06:47:15.588Z,100517.74
2018-09-13T06:49:44.776Z,100516.53
2018-09-13T06:52:13.984Z,100524.05
2018-09-13T06:54:43.136Z,100530.36
2018-09-13T06:57:12.378Z,100528.47
2018-09-13T06:59:41.577Z,100515.66
2018-09-13T07:02:11.036Z,100510.09
2018-09-13T07:04:40.217Z,100512.94
2018-09-13T07:07:09.888Z,100524.45
2018-09-13T07:09:39.084Z,100523.97
2018-09-13T07:12:08.708Z,100532.20
2018-09-13T07:14:37.883Z,100526.18
2018-09-13T07:17:07.421Z,100533.08
2018-09-13T07:19:36.569Z,100534.04
2018-09-13T07:22:05.963Z,100533.63
2018-09-13T07:24:35.171Z,100528.43
2018-09-13T07:27:04.387Z,100527.94
2018-09-13T07:29:33.553Z,100525.44
2018-09-13T07:32:02.718Z,100522.19
2018-09-13T07:34:31.897Z,100518.85
2018-09-13T07:37:01.128Z,100527.75
2018-09-13T07:39:30.355Z,100526.26
2018-09-13T07:41:59.616Z,100533.51
2018-09-13T07:44:28.847Z,100530.07
2018-09-13T07:46:58.117Z,100526.48
2018-09-13T07:49:27.296Z,100532.30
2018-09-13T07:51:56.502Z,100533.34
2018-09-13T07:54:25.664Z,100534.86
2018-09-13T07:56:55.135Z,100533.41
2018-09-13T07:59:24.322Z,100543.55
2018-09-13T08:01:53.500Z,100546.11
2018-09-13T08:04:22.672Z,100534.01
2018-09-13T08:06:51.909Z,100533.62
2018-09-13T08:09:21.099Z,100532.93
2018-09-13T08:11:50.358Z,100540.97
2018-09-13T08:14:19.461Z,100533.13
2018-09-13T08:16:48.659Z,100530.97
2018-09-13T08:19:17.884Z,100530.56
2018-09-13T08:21:47.272Z,100533.06
2018-09-13T08:24:16.325Z,100541.53
2018-09-13T08:26:45.526Z,100542.28
2018-09-13T08:29:14.706Z,100547.27
2018-09-13T08:31:43.939Z,100537.77
2018-09-13T08:34:13.124Z,100545.23
2018-09-13T08:36:42.351Z,100541.39
2018-09-13T08:39:12.429Z,100535.98
2018-09-13T08:41:41.742Z,100549.28
2018-09-13T08:44:11.211Z,100549.44
2018-09-13T08:46:40.436Z,100544.36
2018-09-13T08:49:09.935Z,100550.63
2018-09-13T08:51:39.179Z,100548.68
2018-09-13T08:54:08.753Z,100557.48
2018-09-13T08:56:37.989Z,100560.81
2018-09-13T08:59:07.516Z,100567.16
2018-09-13T09:01:36.707Z,100571.81
2018-09-13T09:04:05.944Z,100570.53
2018-09-13T09:06:35.305Z,100576.86
2018-09-13T09:09:07.162Z,100578.93
2018-09-13T09:11:36.370Z,100585.87
2018-09-13T09:14:05.566Z,100578.45
2018-09-13T09:16:34.782Z,100574.84
2018-09-13T09:19:04.002Z,100576.05
2018-09-13T09:21:33.194Z,100573.56
2018-09-13T09:24:02.502Z,100574.54
2018-09-13T09:26:31.734Z,100572.89
2018-09-13T09:29:00.918Z,100563.11
2018-09-13T09:31:30.179Z,100556.38
2018-09-13T09:33:59.870Z,100550.93
2018-09-13T09:36:29.161Z,100549.45
2018-09-13T09:38:58.390Z,100541.40
2018-09-13T09:41:27.622Z,100542.77
2018-09-13T09:43:57.679Z,100551.71
2018-09-13T09:46:26.932Z,100572.59
2018-09-13T09:48:56.100Z,100583.48
2018-09-13T09:51:25.311Z,100574.83
2018-09-13T09:53:54.664Z,100568.59
2018-09-13T09:56:23.915Z,100563.22
2018-09-13T09:58:53.383Z,100560.25
2018-09-13T10:01:39.947Z,100559.46
2018-09-13T10:04:11.283Z,100560.36
2018-09-13T10:06:42.087Z,100552.36
2018-09-13T10:09:13.411Z,100550.00
2018-09-13T10:11:44.334Z,100549.50
2018-09-13T10:14:13.510Z,100539.22
2018-09-13T10:16:47.959Z,100526.82
2018-09-13T10:19:25.308Z,100526.15
2018-09-13T10:21:59.650Z,100525.33
2018-09-13T10:24:34.039Z,100521.21
2018-09-13T10:27:08.466Z,100517.88
2018-09-13T10:29:43.004Z,100538.86
2018-09-13T10:32:17.388Z,100542.33
2018-09-13T10:34:51.969Z,100554.34
2018-09-13T10:37:26.223Z,100559.69
2018-09-13T10:42:04.492Z,100566.79
2018-09-13T10:44:38.836Z,100571.95
2018-09-13T10:47:13.220Z,100561.45
2018-09-13T10:49:47.465Z,100556.25
2018-09-13T10:52:20.844Z,100553.90
2018-09-13T10:54:49.958Z,100549.49
2018-09-13T10:57:24.335Z,100547.88
2018-09-13T10:59:53.510Z,100557.84
2018-09-13T11:02:22.688Z,100555.81
2018-09-13T11:04:51.863Z,100552.94
2018-09-13T11:07:21.067Z,100557.35
2018-09-13T11:09:50.200Z,100548.98
2018-09-13T11:12:23.599Z,100554.03
2018-09-13T11:14:57.303Z,100551.42
2018-09-13T11:17:26.930Z,100549.83
2018-09-13T11:19:56.082Z,100541.59
2018-09-13T11:22:25.281Z,100529.76
2018-09-13T11:24:54.505Z,100530.02
2018-09-13T11:27:23.695Z,100524.30
2018-09-13T11:29:52.908Z,100526.48
2018-09-13T11:32:22.111Z,100519.98
2018-09-13T11:34:51.280Z,100525.59
2018-09-13T11:37:20.476Z,100526.69
2018-09-13T11:39:49.681Z,100534.86
2018-09-13T11:42:18.818Z,100537.72
2018-09-13T11:44:48.013Z,100543.23
2018-09-13T11:47:17.239Z,100548.31
2018-09-13T11:49:46.405Z,100542.09
2018-09-13T11:52:15.648Z,100536.45
2018-09-13T11:54:44.809Z,100528.00
2018-09-13T11:57:14.002Z,100524.07
2018-09-13T11:59:43.163Z,100507.19
2018-09-13T12:02:12.381Z,100499.08
2018-09-13T12:04:41.549Z,100492.97
2018-09-13T12:07:11.152Z,100485.77
2018-09-13T12:09:40.319Z,100501.78
2018-09-13T12:12:09.827Z,100499.08
2018-09-13T12:14:39.001Z,100498.52
2018-09-13T12:17:08.659Z,100513.55
2018-09-13T12:19:37.909Z,100517.54
2018-09-13T12:22:07.327Z,100523.76
2018-09-13T12:24:36.527Z,100529.09
2018-09-13T12:27:05.724Z,100542.48
2018-09-13T12:29:34.891Z,100539.96
2018-09-13T12:32:04.082Z,100533.10
2018-09-13T12:34:33.240Z,100536.02
2018-09-13T12:37:02.418Z,100540.26
2018-09-13T12:39:31.569Z,100534.63
2018-09-13T12:42:00.755Z,100532.79
2018-09-13T12:44:29.939Z,100536.06
2018-09-13T12:46:59.167Z,100536.75
2018-09-13T12:49:28.420Z,100528.48
2018-09-13T12:51:57.889Z,100520.42
2018-09-13T12:54:27.117Z,100513.72
2018-09-13T12:56:59.353Z,100504.96
2018-09-13T12:59:28.497Z,100509.62
2018-09-13T13:01:57.795Z,100506.66
2018-09-13T13:04:27.027Z,100506.98
2018-09-13T13:06:56.273Z,100509.19
2018-09-13T13:09:25.443Z,100520.20
2018-09-13T13:11:54.673Z,100521.52
2018-09-13T13:14:23.881Z,100521.55
2018-09-13T13:16:53.114Z,100517.80
2018-09-13T13:19:22.286Z,100514.71
2018-09-13T13:21:51.459Z,100506.70
2018-09-13T13:24:20.628Z,100505.50
2018-09-13T13:26:49.876Z,100511.52
2018-09-13T13:29:19.076Z,100501.52
2018-09-13T13:31:48.246Z,100508.21
2018-09-13T13:34:17.463Z,100501.18
2018-09-13T13:36:46.711Z,100507.00
2018-09-13T13:39:15.905Z,100502.22
2018-09-13T13:41:45.107Z,100494.64
2018-09-13T13:44:14.363Z,100500.70
2018-09-13T13:46:43.579Z,100495.55
2018-09-13T13:49:12.835Z,100486.55
2018-09-13T13:51:42.034Z,100475.25
2018-09-13T13:54:11.244Z,100473.11
2018-09-13T13:56:40.422Z,100473.41
2018-09-13T13:59:09.621Z,100475.02
2018-09-13T14:01:38.826Z,100480.16
2018-09-13T14:04:08.392Z,100476.80
2018-09-13T14:06:37.593Z,100467.87
2018-09-13T14:09:10.677Z,100463.76
2018-09-13T14:11:39.951Z,100473.41
2018-09-13T14:14:09.560Z,100465.53
2018-09-13T14:16:38.877Z,100464.69
2018-09-13T14:19:08.454Z,100470.09
2018-09-13T14:21:37.633Z,100464.22
2018-09-13T14:24:07.022Z,100462.93
2018-09-13T14:26:36.257Z,100462.97
2018-09-13T14:29:05.854Z,100461.63
2018-09-13T14:31:35.110Z,100454.63
2018-09-13T14:34:04.344Z,100457.56
2018-09-13T14:36:33.612Z,100454.48
2018-09-13T14:39:02.874Z,100454.47
2018-09-13T14:41:32.412Z,100452.37
2018-09-13T14:44:01.654Z,100448.30
2018-09-13T14:46:30.835Z,100444.64
2018-09-13T14:49:00.048Z,100445.80
2018-09-13T14:51:29.239Z,100446.77
2018-09-13T14:53:58.398Z,100449.66
2018-09-13T14:56:27.599Z,100447.73
2018-09-13T14:58:56.771Z,100441.23
2018-09-13T15:01:26.039Z,100447.58
2018-09-13T15:03:55.222Z,100440.80
2018-09-13T15:06:24.450Z,100432.80
2018-09-13T15:08:53.647Z,100437.88
2018-09-13T15:11:22.850Z,100436.23
2018-09-13T15:13:52.032Z,100432.82
2018-09-13T15:16:21.210Z,100435.59
2018-09-13T15:18:50.500Z,100439.08
2018-09-13T15:21:19.752Z,100435.43
2018-09-13T15:23:48.961Z,100436.14
2018-09-13T15:26:18.217Z,100438.78
2018-09-13T15:28:47.423Z,100432.72
2018-09-13T15:31:16.696Z,100435.03
2018-09-13T15:33:45.832Z,100431.18
2018-09-13T15:36:15.050Z,100429.42
2018-09-13T15:38:44.320Z,100440.50
2018-09-13T15:41:13.534Z,100437.48
2018-09-13T15:43:42.719Z,100437.37
2018-09-13T15:46:12.044Z,100433.53
2018-09-13T15:48:41.223Z,100437.10
2018-09-13T15:51:10.683Z,100440.57
2018-09-13T15:53:39.839Z,100438.39
2018-09-13T15:56:09.466Z,100444.98
2018-09-13T15:58:38.707Z,100441.09
2018-09-13T16:01:08.346Z,100443.64
2018-09-13T16:03:37.495Z,100442.54
2018-09-13T16:06:06.921Z,100441.97
2018-09-13T16:08:36.093Z,100448.77
2018-09-13T16:11:05.280Z,100448.69
2018-09-13T16:13:34.782Z,100454.27
2018-09-13T16:16:04.059Z,100451.00
2018-09-13T16:18:33.293Z,100452.00
2018-09-13T16:21:02.579Z,100456.17
2018-09-13T16:23:31.727Z,100450.51
2018-09-13T16:26:00.988Z,100445.29
2018-09-13T16:28:30.308Z,100450.32
2018-09-13T16:30:59.608Z,100443.20
2018-09-13T16:33:28.778Z,100442.66
2018-09-13T16:36:00.118Z,100435.56
2018-09-13T16:38:34.550Z,100445.05
2018-09-13T16:41:09.080Z,100439.55
2018-09-13T16:43:43.424Z,100439.32
2018-09-13T16:46:18.067Z,100445.45
2018-09-13T16:48:47.324Z,100446.78
2018-09-13T16:51:16.523Z,100447.30
2018-09-13T16:53:45.707Z,100441.28
2018-09-13T16:56:14.934Z,100448.14
2018-09-13T16:58:44.124Z,100440.66
2018-09-13T17:01:14.383Z,100440.61
2018-09-13T17:03:43.790Z,100447.97
2018-09-13T17:06:13.079Z,100449.57
2018-09-13T17:08:46.187Z,100452.27
2018-09-13T17:11:16.330Z,100451.72
2018-09-13T17:13:45.658Z,100454.12
2018-09-13T17:16:14.972Z,100447.53
2018-09-13T17:18:44.441Z,100457.20
2018-09-13T17:21:14.360Z,100452.12
2018-09-13T17:23:43.623Z,100450.77
2018-09-13T17:26:12.836Z,100445.12
2018-09-13T17:28:42.031Z,100452.65
2018-09-13T17:31:11.484Z,100454.27
2018-09-13T17:33:40.685Z,100454.52
2018-09-13T17:36:10.187Z,100460.87
2018-09-13T17:38:39.331Z,100458.05
2018-09-13T17:41:09.008Z,100461.98
2018-09-13T17:43:38.755Z,100461.22
2018-09-13T17:46:08.395Z,100456.19
2018-09-13T17:48:38.254Z,100467.20
2018-09-13T17:51:08.313Z,100456.63
2018-09-13T17:53:37.612Z,100459.04
2018-09-13T17:56:07.135Z,100456.41
2018-09-13T17:58:36.619Z,100454.03
2018-09-13T18:01:06.108Z,100457.52
2018-09-13T18:03:35.335Z,100461.31
2018-09-13T18:06:04.625Z,100469.77
2018-09-13T18:08:41.092Z,100464.44
2018-09-13T18:11:10.609Z,100472.52
2018-09-13T18:13:40.053Z,100469.86
2018-09-13T18:16:09.279Z,100472.59
2018-09-13T18:18:38.475Z,100478.94
2018-09-13T18:21:07.697Z,100478.69
2018-09-13T18:23:36.948Z,100472.78
2018-09-13T18:26:06.127Z,100492.41
2018-09-13T18:28:35.325Z,100488.97
2018-09-13T18:31:04.873Z,100496.45
2018-09-13T18:33:34.095Z,100493.02
2018-09-13T18:36:03.316Z,100499.00
2018-09-13T18:38:32.828Z,100500.86
2018-09-13T18:41:02.148Z,100499.46
2018-09-13T18:43:31.324Z,100502.75
2018-09-13T18:46:00.786Z,100508.63
2018-09-13T18:48:30.083Z,100503.90
2018-09-13T18:50:59.344Z,100508.91
2018-09-13T18:53:28.600Z,100506.52
2018-09-13T18:55:57.873Z,100505.53
2018-09-13T18:58:27.252Z,100505.26
2018-09-13T19:00:56.414Z,100511.09
2018-09-13T19:03:25.751Z,100513.81
2018-09-13T19:05:55.098Z,100517.02
2018-09-13T19:08:24.304Z,100516.84
2018-09-13T19:10:53.638Z,100515.86
2018-09-13T19:13:22.780Z,100518.49
2018-09-13T19:15:52.061Z,100521.42
2018-09-13T19:18:21.259Z,100520.93
2018-09-13T19:20:50.488Z,100519.57
2018-09-13T19:23:19.690Z,100524.69
2018-09-13T19:26:18.572Z,100532.43
2018-09-13T19:28:47.806Z,100530.45
2018-09-13T19:31:17.279Z,100538.94
2018-09-13T19:33:46.480Z,100542.68
2018-09-13T19:36:15.915Z,100546.59
2018-09-13T19:38:45.184Z,100548.21
2018-09-13T19:41:14.891Z,100550.47
2018-09-13T19:43:44.129Z,100556.89
2018-09-13T19:46:14.667Z,100557.52
2018-09-13T19:48:43.852Z,100556.80
2018-09-13T19:51:14.028Z,100554.80
2018-09-13T19:53:43.234Z,100566.33
2018-09-13T19:56:13.281Z,100563.11
2018-09-13T19:58:42.477Z,100567.13
2018-09-13T20:01:11.850Z,100569.11
2018-09-13T20:03:42.703Z,100572.70
2018-09-13T20:06:11.911Z,100570.55
2018-09-13T20:08:41.253Z,100576.75
2018-09-13T20:11:10.415Z,100580.02
2018-09-13T20:13:39.609Z,100572.80
2018-09-13T20:16:08.817Z,100579.70
2018-09-13T20:18:38.115Z,100571.88
2018-09-13T20:21:07.284Z,100571.53
2018-09-13T20:23:36.471Z,100568.07
2018-09-13T20:26:05.706Z,100569.19
2018-09-13T20:28:34.932Z,100570.70
2018-09-13T20:31:04.151Z,100575.53
2018-09-13T20:33:33.372Z,100583.88
2018-09-13T20:36:02.663Z,100580.52
2018-09-13T20:38:31.916Z,100574.20
2018-09-13T20:41:01.147Z,100584.59
2018-09-13T20:43:30.375Z,100580.09
2018-09-13T20:45:59.573Z,100578.81
2018-09-13T20:48:28.823Z,100581.29
2018-09-13T20:50:57.997Z,100583.24
2018-09-13T20:53:27.230Z,100584.60
2018-09-13T20:55:56.487Z,100578.75
2018-09-13T20:58:25.770Z,100583.81
2018-09-13T21:00:55.086Z,100584.40
2018-09-13T21:03:24.400Z,100588.59
2018-09-13T21:05:53.660Z,100595.24
2018-09-13T21:08:22.914Z,100591.83
2018-09-13T21:10:52.175Z,100586.80
2018-09-13T21:13:22.022Z,100590.41
2018-09-13T21:15:51.281Z,100595.17
2018-09-13T21:18:20.491Z,100597.19
2018-09-13T21:20:49.700Z,100592.06
2018-09-13T21:23:18.912Z,100603.22
2018-09-13T21:25:48.153Z,100600.87
2018-09-13T21:28:17.408Z,100606.02
2018-09-13T21:30:46.643Z,100600.46
2018-09-13T21:33:15.976Z,100598.50
2018-09-13T21:35:45.235Z,100604.18
2018-09-13T21:38:15.040Z,100607.48
2018-09-13T21:40:44.269Z,100607.33
2018-09-13T21:43:14.171Z,100610.64
2018-09-13T21:45:43.404Z,100610.78
2018-09-13T21:48:12.772Z,100610.26
2018-09-13T21:50:42.929Z,100616.09
2018-09-13T21:53:14.946Z,100616.02
2018-09-13T21:55:45.487Z,100614.62
2018-09-13T21:58:15.118Z,100610.11
2018-09-13T22:00:44.393Z,100613.42
2018-09-13T22:03:14.252Z,100613.05
2018-09-13T22:05:43.467Z,100610.26
2018-09-13T22:08:13.351Z,100614.84
2018-09-13T22:10:42.562Z,100607.94
2018-09-13T22:13:11.779Z,100614.22
2018-09-13T22:15:41.046Z,100611.30
2018-09-13T22:18:10.269Z,100608.64
2018-09-13T22:20:39.475Z,100621.75
2018-09-13T22:23:08.658Z,100625.75
2018-09-13T22:25:37.915Z,100629.97
2018-09-13T22:28:07.160Z,100621.14
2018-09-13T22:30:36.412Z,100624.47
2018-09-13T22:33:05.684Z,100621.59
2018-09-13T22:35:37.779Z,100619.83
2018-09-13T22:38:07.045Z,100626.17
2018-09-13T22:40:36.239Z,100626.91
2018-09-13T22:43:05.552Z,100628.66
2018-09-13T22:45:34.850Z,100622.01
2018-09-13T22:48:04.045Z,100621.08
2018-09-13T22:50:33.282Z,100623.24
2018-09-13T22:53:02.588Z,100632.11
2018-09-13T22:55:31.868Z,100632.94
2018-09-13T22:58:01.067Z,100623.68
2018-09-13T23:00:31.071Z,100626.89
2018-09-13T23:03:00.323Z,100626.79
2018-09-13T23:05:29.759Z,100621.23
2018-09-13T23:07:58.962Z,100621.81
2018-09-13T23:10:28.249Z,100620.40
2018-09-13T23:12:57.459Z,100623.71
2018-09-13T23:15:26.686Z,100617.94
2018-09-13T23:17:56.033Z,100609.52
2018-09-13T23:20:25.228Z,100619.87
2018-09-13T23:22:54.477Z,100620.28
2018-09-13T23:25:23.773Z,100620.48
2018-09-13T23:27:53.010Z,100617.58
2018-09-13T23:30:23.152Z,100613.56
2018-09-13T23:32:52.476Z,100616.56
2018-09-13T23:35:21.732Z,100613.11
2018-09-13T23:37:50.951Z,100614.39
2018-09-13T23:40:20.304Z,100614.91
2018-09-13T23:42:49.407Z,100616.27
2018-09-13T23:45:19.498Z,100616.87
2018-09-13T23:47:48.660Z,100614.36
2018-09-13T23:50:18.252Z,100614.08
2018-09-13T23:52:47.452Z,100618.36
2018-09-13T23:55:19.098Z,100624.08
2018-09-13T23:57:48.279Z,100622.58
